Time;durP1;ratioP1;P1;durP2;ratioP2;P2;SDS_P1;SDS_P2;PMS_P1;PMS_P2;Temp;Humidity;BMP_temperature;BMP_pressure;BME280_temperature;BME280_humidity;BME280_pressure;Samples;Min_cycle;Max_cycle;Signal;HPM_P1;HPM_P2
2022/12/13 00:01:32;;;;;;;1462.70;926.67;;;-2.60;99.90;;;;;;5048826;28;20865;-53
2022/12/13 00:04:04;;;;;;;1014.37;904.77;;;-2.60;99.90;;;;;;5048156;28;20229;-51
2022/12/13 00:06:33;;;;;;;1999.90;999.90;;;-2.60;99.90;;;;;;5047820;28;20206;-51
2022/12/13 00:09:01;;;;;;;1179.83;891.83;;;-2.60;99.90;;;;;;5048460;28;20309;-54
2022/12/13 00:11:29;;;;;;;1019.00;924.63;;;-2.50;99.90;;;;;;5048808;28;20233;-53
2022/12/13 00:13:57;;;;;;;1234.00;999.90;;;-2.60;99.90;;;;;;5048408;28;20201;-52
2022/12/13 00:16:26;;;;;;;956.77;860.07;;;-2.60;99.90;;;;;;5048680;28;20264;-53
2022/12/13 00:18:56;;;;;;;933.60;846.63;;;-2.60;99.90;;;;;;5046684;28;20225;-52
2022/12/13 00:21:28;;;;;;;1002.10;893.60;;;-2.70;99.90;;;;;;5047448;28;20325;-51
2022/12/13 00:23:56;;;;;;;1999.90;999.90;;;-2.70;99.90;;;;;;5047994;28;20312;-52
2022/12/13 00:26:27;;;;;;;1686.67;999.90;;;-2.80;99.90;;;;;;5048934;28;20699;-53
2022/12/13 00:28:55;;;;;;;1976.97;999.90;;;-2.70;99.90;;;;;;5048757;28;20261;-53
2022/12/13 00:31:25;;;;;;;1999.90;999.90;;;-2.70;99.90;;;;;;5048449;28;20312;-53
2022/12/13 00:34:13;;;;;;;928.83;839.37;;;-2.70;99.90;;;;;;5048569;28;20209;-53
2022/12/13 00:36:42;;;;;;;1554.63;981.67;;;-2.80;99.90;;;;;;5047318;28;20232;-54
2022/12/13 00:39:12;;;;;;;1012.23;901.57;;;-2.80;99.90;;;;;;5047738;28;20212;-52
2022/12/13 00:41:40;;;;;;;1971.53;999.90;;;-2.90;99.90;;;;;;5047923;28;20602;-54
2022/12/13 00:44:11;;;;;;;1213.43;963.50;;;-3.00;99.90;;;;;;5048774;28;20218;-51
2022/12/13 00:46:39;;;;;;;1335.13;999.90;;;-3.00;99.90;;;;;;5048422;28;20233;-52
2022/12/13 00:49:10;;;;;;;1176.13;999.90;;;-3.00;99.90;;;;;;5048464;28;20670;-53
2022/12/13 00:51:38;;;;;;;971.13;873.60;;;-3.00;99.90;;;;;;5048680;28;20237;-52
2022/12/13 00:54:09;;;;;;;1638.17;991.47;;;-3.00;99.90;;;;;;5050208;28;20211;-52
2022/12/13 00:56:38;;;;;;;1575.87;999.83;;;-3.00;99.90;;;;;;5049366;28;21000;-53
2022/12/13 00:59:06;;;;;;;1726.00;999.90;;;-3.00;99.90;;;;;;5048822;28;20697;-52
2022/12/13 01:01:36;;;;;;;1999.90;999.90;;;-3.10;99.90;;;;;;5052073;28;20315;-52
2022/12/13 01:04:06;;;;;;;1132.27;999.90;;;-3.30;99.90;;;;;;5051271;28;20233;-53
2022/12/13 01:06:38;;;;;;;1921.33;999.90;;;-3.30;99.90;;;;;;5052314;28;20292;-53
2022/12/13 01:09:18;;;;;;;867.27;784.77;;;-3.20;99.90;;;;;;5051535;28;20957;-52
2022/12/13 01:11:46;;;;;;;1603.47;999.90;;;-3.20;99.90;;;;;;5051473;28;20294;-52
2022/12/13 01:14:15;;;;;;;1800.10;999.90;;;-3.20;99.90;;;;;;5048370;28;20303;-53
2022/12/13 01:16:43;;;;;;;1424.00;987.20;;;-3.20;99.90;;;;;;5050195;28;20208;-54
2022/12/13 01:19:11;;;;;;;1362.33;999.90;;;-3.30;99.90;;;;;;5050793;28;20204;-52
2022/12/13 01:21:39;;;;;;;1528.43;999.90;;;-3.30;99.90;;;;;;5051410;28;20240;-53
2022/12/13 01:24:08;;;;;;;1825.03;998.17;;;-3.30;99.90;;;;;;5051413;28;20233;-53
2022/12/13 01:26:38;;;;;;;1999.90;999.90;;;-3.20;99.90;;;;;;5050740;28;20291;-53
2022/12/13 01:29:06;;;;;;;1999.90;999.90;;;-3.10;99.90;;;;;;5051480;28;20792;-53
2022/12/13 01:31:34;;;;;;;994.17;896.10;;;-3.30;99.90;;;;;;5049987;28;20248;-52
2022/12/13 01:34:09;;;;;;;1129.63;973.03;;;-3.40;99.90;;;;;;5050824;28;20254;-52
2022/12/13 01:36:38;;;;;;;1650.77;999.90;;;-3.50;99.90;;;;;;5050053;28;20209;-53
2022/12/13 01:39:06;;;;;;;1999.90;999.90;;;-3.40;99.90;;;;;;5051145;28;20748;-52
2022/12/13 01:41:44;;;;;;;1428.17;999.90;;;-3.40;99.90;;;;;;5050847;28;20207;-53
2022/12/13 01:44:49;;;;;;;1036.40;935.03;;;-3.40;99.90;;;;;;5045095;28;20290;-52
2022/12/13 01:47:22;;;;;;;1374.63;999.90;;;-3.40;99.90;;;;;;5050930;28;20301;-53
2022/12/13 01:49:52;;;;;;;1999.90;986.63;;;-3.40;99.90;;;;;;5051093;28;20257;-52
2022/12/13 01:52:20;;;;;;;1999.90;999.90;;;-3.40;99.90;;;;;;5050256;28;20703;-54
2022/12/13 01:54:52;;;;;;;1120.87;966.33;;;-3.50;99.90;;;;;;5051018;28;20205;-52
2022/12/13 01:57:23;;;;;;;1042.00;928.80;;;-3.50;99.90;;;;;;5050823;28;20684;-52
2022/12/13 01:59:53;;;;;;;1750.23;999.90;;;-3.60;99.90;;;;;;5050999;28;20318;-53
2022/12/13 02:02:22;;;;;;;1329.20;984.87;;;-3.60;99.90;;;;;;5049864;28;21088;-53
2022/12/13 02:04:59;;;;;;;1075.10;933.07;;;-3.60;99.90;;;;;;5049946;28;20304;-53
2022/12/13 02:07:30;;;;;;;1036.53;927.23;;;-3.60;99.90;;;;;;5050762;28;20212;-52
2022/12/13 02:10:03;;;;;;;1517.50;968.47;;;-3.60;99.90;;;;;;5050980;28;20312;-52
2022/12/13 02:12:34;;;;;;;1999.90;999.90;;;-3.60;99.90;;;;;;5050431;28;20226;-52
2022/12/13 02:15:06;;;;;;;1530.53;999.90;;;-3.70;99.90;;;;;;5050566;28;20207;-52
2022/12/13 02:17:47;;;;;;;1338.47;999.90;;;-3.90;99.90;;;;;;5050383;28;20907;-52
2022/12/13 02:20:57;;;;;;;1150.83;996.27;;;-3.90;99.90;;;;;;5050524;28;20322;-52
2022/12/13 02:23:57;;;;;;;1080.77;866.73;;;-3.80;99.90;;;;;;5029807;28;20247;-51
2022/12/13 02:26:57;;;;;;;1076.63;879.10;;;-3.80;99.90;;;;;;5050597;28;20278;-52
2022/12/13 02:29:59;;;;;;;958.33;858.83;;;-3.90;99.90;;;;;;5036896;28;20213;-52
2022/12/13 02:32:33;;;;;;;1038.20;929.90;;;-4.00;99.90;;;;;;5028211;28;20213;-52
2022/12/13 02:35:06;;;;;;;1308.53;966.63;;;-3.90;99.90;;;;;;5048687;28;20290;-54
2022/12/13 02:37:46;;;;;;;930.77;833.97;;;-3.80;99.90;;;;;;5040350;28;20247;-53
2022/12/13 02:40:22;;;;;;;1045.50;928.87;;;-3.80;99.90;;;;;;5049957;28;20333;-52
2022/12/13 02:42:57;;;;;;;1081.83;967.43;;;-3.80;99.90;;;;;;5049593;28;20286;-53
2022/12/13 02:45:31;;;;;;;1079.93;970.87;;;-4.00;99.90;;;;;;5049668;28;20226;-53
2022/12/13 02:48:02;;;;;;;1066.87;958.07;;;-4.00;99.90;;;;;;5050277;28;20295;-52
2022/12/13 02:50:32;;;;;;;1105.60;988.53;;;-3.90;99.90;;;;;;5049680;28;20354;-52
2022/12/13 02:53:01;;;;;;;1070.13;963.37;;;-3.90;99.90;;;;;;5049212;28;20307;-51
2022/12/13 02:55:31;;;;;;;1037.60;933.87;;;-4.00;99.90;;;;;;5049720;28;20657;-52
2022/12/13 02:57:59;;;;;;;1016.73;920.67;;;-4.00;99.90;;;;;;5049748;28;20242;-51
2022/12/13 03:00:36;;;;;;;1589.90;999.90;;;-4.00;99.90;;;;;;5049505;28;20269;-53
2022/12/13 03:03:20;;;;;;;976.40;884.40;;;-4.10;99.90;;;;;;5049104;28;20295;-53
2022/12/13 03:08:53;;;;;;;1351.73;999.90;;;-4.20;99.90;;;;;;5041316;28;20310;-53
2022/12/13 03:11:25;;;;;;;1027.70;910.00;;;-4.10;99.90;;;;;;5042337;28;20266;-52
2022/12/13 03:13:54;;;;;;;1183.13;999.90;;;-4.10;99.90;;;;;;5049040;28;20285;-52
2022/12/13 03:16:29;;;;;;;1112.43;962.63;;;-4.00;99.90;;;;;;5034998;28;20211;-53
2022/12/13 03:19:02;;;;;;;1977.60;999.90;;;-4.10;99.90;;;;;;5049559;28;20210;-53
2022/12/13 03:21:37;;;;;;;986.40;889.20;;;-4.00;99.90;;;;;;5048200;28;20321;-52
2022/12/13 03:24:16;;;;;;;1313.63;928.23;;;-4.10;99.90;;;;;;5049108;28;20215;-53
2022/12/13 03:26:44;;;;;;;1480.27;999.90;;;-4.00;99.90;;;;;;5047104;28;20206;-51
2022/12/13 03:29:12;;;;;;;994.60;896.77;;;-4.10;99.90;;;;;;5049327;28;20228;-52
2022/12/13 03:31:51;;;;;;;1050.43;940.13;;;-4.30;99.90;;;;;;5048528;28;20235;-54
2022/12/13 03:34:20;;;;;;;1879.70;999.90;;;-4.30;99.90;;;;;;5049013;28;20289;-52
2022/12/13 03:36:50;;;;;;;1999.90;999.90;;;-4.30;99.90;;;;;;5049344;28;20206;-52
2022/12/13 03:39:18;;;;;;;1999.90;999.90;;;-4.30;99.90;;;;;;5048849;28;20215;-52
2022/12/13 03:41:46;;;;;;;1999.90;999.90;;;-4.30;99.90;;;;;;5048871;28;20206;-53
2022/12/13 03:44:14;;;;;;;1210.00;999.90;;;-4.50;99.90;;;;;;5049174;28;20210;-50
2022/12/13 03:46:42;;;;;;;1467.97;999.90;;;-4.50;99.90;;;;;;5048617;28;20305;-52
2022/12/13 03:49:10;;;;;;;1140.77;999.90;;;-4.50;99.90;;;;;;5049039;28;20322;-51
2022/12/13 03:51:45;;;;;;;1289.97;999.90;;;-4.50;99.90;;;;;;5048095;28;20585;-54
2022/12/13 03:54:13;;;;;;;1999.90;999.90;;;-4.50;99.90;;;;;;5048550;28;20210;-53
2022/12/13 03:56:41;;;;;;;1150.30;969.53;;;-4.50;99.90;;;;;;5041879;28;20287;-53
2022/12/13 03:59:09;;;;;;;1999.90;999.90;;;-4.50;99.90;;;;;;5048366;28;20294;-53
2022/12/13 04:01:37;;;;;;;1557.63;993.87;;;-4.70;99.90;;;;;;5048751;28;20248;-53
2022/12/13 04:04:06;;;;;;;1999.90;999.90;;;-4.70;99.90;;;;;;5048596;28;20214;-52
2022/12/13 04:06:34;;;;;;;1384.87;999.90;;;-4.70;99.90;;;;;;5048900;28;20248;-53
2022/12/13 04:09:03;;;;;;;1999.90;999.90;;;-4.70;99.90;;;;;;5048606;28;20214;-51
2022/12/13 04:14:17;;;;;;;1101.77;970.70;;;-4.70;99.90;;;;;;5048572;28;20297;-52
2022/12/13 04:16:50;;;;;;;1149.50;999.90;;;-4.70;99.90;;;;;;5048847;28;20213;-52
2022/12/13 04:19:18;;;;;;;1148.90;999.90;;;-4.70;99.90;;;;;;5048483;28;20211;-50
2022/12/13 04:21:50;;;;;;;1465.70;999.90;;;-4.60;99.90;;;;;;5047104;28;20203;-50
2022/12/13 04:24:20;;;;;;;1580.67;999.90;;;-4.60;99.90;;;;;;5048552;28;20205;-52
2022/12/13 04:26:57;;;;;;;1704.93;999.90;;;-4.50;99.90;;;;;;5043194;28;20235;-53
2022/12/13 04:29:27;;;;;;;1624.60;999.90;;;-4.50;99.90;;;;;;5050953;28;20214;-51
2022/12/13 04:32:02;;;;;;;1255.60;995.30;;;-4.60;99.90;;;;;;5052142;28;20744;-53
2022/12/13 04:34:30;;;;;;;1652.57;999.90;;;-4.80;99.90;;;;;;5051431;28;20229;-53
2022/12/13 04:37:04;;;;;;;1118.07;980.63;;;-4.80;99.90;;;;;;5052783;28;20200;-52
2022/12/13 04:39:34;;;;;;;1065.60;955.43;;;-4.80;99.90;;;;;;5052113;28;20292;-52
2022/12/13 04:42:02;;;;;;;1067.93;962.03;;;-4.90;99.90;;;;;;5052232;28;20238;-52
2022/12/13 04:44:30;;;;;;;1054.50;944.87;;;-4.80;99.90;;;;;;5051938;28;20842;-54
2022/12/13 04:47:03;;;;;;;1165.40;999.90;;;-4.80;99.90;;;;;;5052312;28;20214;-52
2022/12/13 04:49:32;;;;;;;978.67;873.00;;;-4.70;99.90;;;;;;5051913;28;20298;-54
2022/12/13 04:52:01;;;;;;;1313.77;999.90;;;-4.60;99.90;;;;;;5051900;28;20299;-52
2022/12/13 04:54:29;;;;;;;1960.93;999.90;;;-4.70;99.90;;;;;;5051903;28;20217;-53
2022/12/13 04:57:06;;;;;;;1999.90;999.90;;;-4.70;99.90;;;;;;5052227;28;20206;-52
2022/12/13 04:59:34;;;;;;;990.70;899.43;;;-4.60;99.90;;;;;;5051786;28;20321;-51
2022/12/13 05:02:03;;;;;;;1999.90;999.90;;;-4.80;99.90;;;;;;5051797;28;20212;-52
2022/12/13 05:04:31;;;;;;;1123.03;999.90;;;-4.90;99.90;;;;;;5052010;28;20294;-51
2022/12/13 05:07:01;;;;;;;1072.00;958.40;;;-4.90;99.90;;;;;;5050920;28;20218;-53
2022/12/13 05:09:29;;;;;;;1962.57;999.90;;;-4.90;99.90;;;;;;5051882;28;20240;-52
2022/12/13 05:11:57;;;;;;;1026.43;925.03;;;-5.00;99.90;;;;;;5045024;28;20295;-52
2022/12/13 05:14:30;;;;;;;1309.53;999.90;;;-5.00;99.90;;;;;;5052094;28;20207;-53
2022/12/13 05:16:59;;;;;;;1271.40;999.90;;;-4.90;99.90;;;;;;5051905;28;20206;-52
2022/12/13 05:19:27;;;;;;;1580.53;999.90;;;-4.80;99.90;;;;;;5051935;28;20206;-52
2022/12/13 05:21:58;;;;;;;1018.20;914.57;;;-4.90;99.90;;;;;;5051412;28;20215;-53
2022/12/13 05:24:29;;;;;;;1697.23;885.10;;;-5.10;99.90;;;;;;5051986;28;20218;-50
2022/12/13 05:26:57;;;;;;;1227.17;995.13;;;-5.20;99.90;;;;;;5051622;28;20232;-51
2022/12/13 05:29:26;;;;;;;1999.90;999.90;;;-5.20;99.90;;;;;;5051897;28;20256;-52
2022/12/13 05:31:56;;;;;;;1332.67;982.87;;;-5.20;99.90;;;;;;5051125;28;20209;-53
2022/12/13 05:34:24;;;;;;;1292.37;938.73;;;-5.30;99.90;;;;;;5051223;28;20242;-51
2022/12/13 05:36:52;;;;;;;1968.20;999.90;;;-5.30;99.90;;;;;;5051384;28;20964;-52
2022/12/13 05:39:20;;;;;;;1598.90;999.27;;;-5.30;99.90;;;;;;5051273;28;20293;-53
2022/12/13 05:41:58;;;;;;;1877.47;999.90;;;-5.30;99.90;;;;;;5051035;28;20206;-52
2022/12/13 05:44:29;;;;;;;1980.73;999.90;;;-5.30;99.90;;;;;;5049791;28;20244;-53
2022/12/13 05:46:58;;;;;;;1999.90;999.90;;;-5.20;99.90;;;;;;5051162;28;20722;-52
2022/12/13 05:49:30;;;;;;;1200.60;999.90;;;-5.10;99.90;;;;;;5051171;28;20221;-52
2022/12/13 05:51:58;;;;;;;1186.60;999.90;;;-5.20;99.90;;;;;;5050970;28;20280;-53
2022/12/13 05:54:26;;;;;;;1432.47;999.90;;;-5.20;99.90;;;;;;5049332;28;20213;-53
2022/12/13 05:56:55;;;;;;;1321.77;991.30;;;-5.10;99.90;;;;;;5051160;28;20209;-52
2022/12/13 05:59:23;;;;;;;1766.93;997.33;;;-5.00;99.90;;;;;;5050790;28;20300;-52
2022/12/13 06:01:51;;;;;;;1340.67;994.00;;;-4.90;99.90;;;;;;5050086;28;20206;-52
2022/12/13 06:04:21;;;;;;;1642.47;999.90;;;-4.90;99.90;;;;;;5050984;28;20245;-52
2022/12/13 06:06:50;;;;;;;1776.47;999.90;;;-4.90;99.90;;;;;;5050602;28;20226;-52
2022/12/13 06:09:19;;;;;;;1999.90;999.90;;;-4.80;99.90;;;;;;5050346;28;20650;-52
2022/12/13 06:11:47;;;;;;;1650.80;999.90;;;-4.90;99.90;;;;;;5050142;28;20210;-53
2022/12/13 06:14:16;;;;;;;1091.63;983.40;;;-4.90;99.90;;;;;;5050722;28;20296;-52
2022/12/13 06:16:50;;;;;;;1129.73;999.90;;;-4.90;99.90;;;;;;5050436;28;20232;-52
2022/12/13 06:19:21;;;;;;;1054.73;956.10;;;-4.80;99.90;;;;;;5050666;28;20299;-52
2022/12/13 06:21:49;;;;;;;1089.10;974.83;;;-4.80;99.90;;;;;;5050322;28;20211;-52
2022/12/13 06:24:19;;;;;;;1869.70;999.90;;;-4.80;99.90;;;;;;5050438;28;20247;-52
2022/12/13 06:26:48;;;;;;;1147.90;999.90;;;-4.70;99.90;;;;;;5050342;28;20889;-52
2022/12/13 06:29:18;;;;;;;1028.37;926.43;;;-4.70;99.90;;;;;;5050003;28;20713;-52
2022/12/13 06:31:53;;;;;;;859.53;774.93;;;-4.70;99.90;;;;;;5050047;28;20251;-52
2022/12/13 06:34:32;;;;;;;947.33;847.37;;;-4.80;99.90;;;;;;5049883;28;20663;-52
2022/12/13 06:37:01;;;;;;;1058.50;943.30;;;-4.80;99.90;;;;;;5050642;28;20218;-53
2022/12/13 06:39:29;;;;;;;996.60;896.87;;;-4.80;99.90;;;;;;5049926;28;20626;-52
2022/12/13 06:42:07;;;;;;;973.87;880.53;;;-4.90;99.90;;;;;;5049780;28;20281;-52
2022/12/13 06:44:35;;;;;;;1023.20;811.13;;;-4.90;99.90;;;;;;5049237;28;20251;-52
2022/12/13 06:47:03;;;;;;;1014.23;871.40;;;-4.90;99.90;;;;;;5050122;28;20218;-52
2022/12/13 06:49:42;;;;;;;1416.67;999.90;;;-4.90;99.90;;;;;;5049744;28;20725;-53
2022/12/13 06:52:12;;;;;;;963.37;869.97;;;-4.90;99.90;;;;;;5048792;28;20293;-52
2022/12/13 06:54:41;;;;;;;909.77;796.47;;;-4.90;99.90;;;;;;5049938;28;20696;-53
2022/12/13 06:57:10;;;;;;;960.30;874.73;;;-5.00;99.90;;;;;;5049553;28;20202;-52
2022/12/13 06:59:38;;;;;;;1369.83;909.13;;;-5.00;99.90;;;;;;5049591;28;20265;-52
2022/12/13 07:02:07;;;;;;;967.93;864.30;;;-5.00;99.90;;;;;;5049337;28;20846;-51
2022/12/13 07:04:55;;;;;;;1093.70;928.57;;;-5.00;99.90;;;;;;5049322;28;20213;-52
2022/12/13 07:07:25;;;;;;;876.73;797.00;;;-5.00;99.90;;;;;;5049643;28;20234;-53
2022/12/13 07:09:53;;;;;;;1042.23;885.97;;;-5.00;99.90;;;;;;5040506;28;20238;-52
2022/12/13 07:12:22;;;;;;;1016.63;897.47;;;-4.90;99.90;;;;;;5048843;28;20233;-52
2022/12/13 07:14:50;;;;;;;1076.30;969.03;;;-4.90;99.90;;;;;;5049208;28;20666;-52
2022/12/13 07:17:18;;;;;;;1019.17;922.07;;;-5.00;99.90;;;;;;5047751;28;20324;-52
2022/12/13 07:20:06;;;;;;;1273.83;947.27;;;-4.90;99.90;;;;;;5036388;28;20279;-52
2022/12/13 07:22:36;;;;;;;1062.50;934.50;;;-5.00;99.90;;;;;;5048225;28;20214;-54
2022/12/13 07:25:12;;;;;;;1157.40;942.63;;;-4.90;99.90;;;;;;5043065;28;20244;-53
2022/12/13 07:28:00;;;;;;;1140.00;967.33;;;-4.80;99.90;;;;;;5045910;28;20726;-53
2022/12/13 07:30:32;;;;;;;1181.53;973.93;;;-4.90;99.90;;;;;;5043947;28;20690;-52
2022/12/13 07:33:01;;;;;;;1256.73;947.60;;;-4.90;99.90;;;;;;5048607;28;20296;-52
2022/12/13 07:35:32;;;;;;;1102.23;984.93;;;-4.90;99.90;;;;;;5049526;28;20210;-52
2022/12/13 07:38:04;;;;;;;1607.57;995.00;;;-4.80;99.90;;;;;;5049180;28;20197;-52
2022/12/13 07:40:33;;;;;;;1264.23;988.60;;;-4.80;99.90;;;;;;5049108;28;20276;-54
2022/12/13 07:43:02;;;;;;;1300.73;999.90;;;-4.80;99.90;;;;;;5048554;28;20220;-53
2022/12/13 07:45:30;;;;;;;1893.47;999.90;;;-4.70;99.90;;;;;;5048998;28;20292;-53
2022/12/13 07:47:58;;;;;;;1546.57;999.90;;;-4.70;99.90;;;;;;5048905;28;20309;-52
2022/12/13 07:50:26;;;;;;;1242.93;951.43;;;-4.80;99.90;;;;;;5048880;28;20309;-53
2022/12/13 07:53:07;;;;;;;1150.60;999.90;;;-4.70;99.90;;;;;;5048519;28;20210;-52
2022/12/13 07:55:36;;;;;;;1999.90;960.70;;;-4.70;99.90;;;;;;5047744;28;20198;-53
2022/12/13 07:58:06;;;;;;;1229.57;999.90;;;-4.80;99.90;;;;;;5040722;28;20650;-53
2022/12/13 08:00:34;;;;;;;1022.93;914.60;;;-4.80;99.90;;;;;;5042789;28;20262;-53
2022/12/13 08:03:02;;;;;;;1348.47;999.90;;;-4.80;99.90;;;;;;5047630;28;20232;-53
2022/12/13 08:05:30;;;;;;;1464.47;999.90;;;-4.70;99.90;;;;;;5052297;28;20668;-53
2022/12/13 08:08:10;;;;;;;1999.90;999.90;;;-4.70;99.90;;;;;;5052718;28;20705;-52
2022/12/13 08:10:39;;;;;;;1999.90;999.90;;;-4.70;99.90;;;;;;5050295;28;20230;-53
2022/12/13 08:13:07;;;;;;;1694.33;999.90;;;-4.90;99.90;;;;;;5044471;28;20213;-50
2022/12/13 08:15:35;;;;;;;1345.70;999.90;;;-4.70;99.90;;;;;;5041358;28;20292;-53
2022/12/13 08:18:03;;;;;;;1195.27;999.90;;;-4.70;99.90;;;;;;5044010;28;20211;-53
2022/12/13 08:20:32;;;;;;;1608.30;999.90;;;-4.60;99.90;;;;;;5041154;28;20852;-54
2022/12/13 08:23:00;;;;;;;1097.30;986.50;;;-4.70;99.90;;;;;;5051888;28;20300;-53
2022/12/13 08:25:31;;;;;;;1626.53;964.60;;;-4.70;99.90;;;;;;5052862;28;20238;-54
2022/12/13 08:27:59;;;;;;;1168.53;970.03;;;-4.60;99.90;;;;;;5052371;28;20217;-52
2022/12/13 08:30:32;;;;;;;1999.90;999.90;;;-4.70;99.90;;;;;;5052563;28;20227;-52
2022/12/13 08:33:00;;;;;;;1107.73;986.07;;;-4.70;99.90;;;;;;5051100;28;20299;-52
2022/12/13 08:35:32;;;;;;;1795.50;998.93;;;-4.80;99.90;;;;;;5050785;28;20263;-54
2022/12/13 08:38:01;;;;;;;1130.30;999.90;;;-4.70;99.90;;;;;;5052174;28;20275;-54
2022/12/13 08:40:31;;;;;;;1928.63;999.90;;;-4.60;99.90;;;;;;5050838;28;20721;-53
2022/12/13 08:42:59;;;;;;;1999.90;999.90;;;-4.60;99.90;;;;;;5050054;28;20300;-53
2022/12/13 08:45:27;;;;;;;1134.37;999.90;;;-4.60;99.90;;;;;;5051766;28;20233;-53
2022/12/13 08:47:59;;;;;;;1999.90;999.90;;;-4.60;99.90;;;;;;5052101;28;20318;-53
2022/12/13 08:50:28;;;;;;;1348.60;999.90;;;-4.60;99.90;;;;;;5050557;28;20242;-54
2022/12/13 08:52:56;;;;;;;1502.33;952.43;;;-4.60;99.90;;;;;;5051814;28;20206;-52
2022/12/13 08:55:24;;;;;;;1213.50;999.90;;;-4.50;99.90;;;;;;5038395;28;20660;-52
2022/12/13 08:58:07;;;;;;;1160.30;990.80;;;-4.50;99.90;;;;;;5052423;28;20210;-53
2022/12/13 09:00:36;;;;;;;1337.63;999.90;;;-4.40;99.90;;;;;;5051666;28;20237;-52
2022/12/13 09:03:05;;;;;;;1043.20;946.20;;;-4.30;99.90;;;;;;5051417;28;20254;-53
2022/12/13 09:05:38;;;;;;;1064.33;962.83;;;-4.30;99.90;;;;;;5052032;28;20216;-53
2022/12/13 09:08:06;;;;;;;1079.47;977.27;;;-4.20;99.90;;;;;;5051684;28;20265;-53
2022/12/13 09:10:58;;;;;;;1537.63;999.90;;;-4.10;99.90;;;;;;5051715;28;20234;-54
2022/12/13 09:13:29;;;;;;;1197.83;999.90;;;-4.20;99.90;;;;;;5051100;28;20649;-53
2022/12/13 09:16:04;;;;;;;1073.93;962.77;;;-4.20;99.90;;;;;;5051389;28;20207;-55
2022/12/13 09:18:41;;;;;;;1064.17;960.83;;;-4.10;99.90;;;;;;5051837;28;20199;-53
2022/12/13 09:21:11;;;;;;;1025.80;930.00;;;-4.10;99.90;;;;;;5052145;28;20227;-53
2022/12/13 09:23:40;;;;;;;1080.10;970.80;;;-4.10;99.90;;;;;;5051298;28;20974;-53
2022/12/13 09:26:15;;;;;;;1999.90;999.90;;;-4.10;99.90;;;;;;5045807;28;20589;-52
2022/12/13 09:28:44;;;;;;;1211.37;999.90;;;-3.80;99.90;;;;;;5045725;28;20268;-53
2022/12/13 09:31:15;;;;;;;1021.03;911.60;;;-3.80;99.90;;;;;;5050511;28;20648;-52
2022/12/13 09:33:44;;;;;;;850.57;773.27;;;-3.80;99.90;;;;;;5051282;28;20213;-52
2022/12/13 09:36:14;;;;;;;1000.20;906.37;;;-3.80;99.90;;;;;;5047658;28;20242;-52
2022/12/13 09:38:43;;;;;;;933.43;843.90;;;-3.90;99.90;;;;;;5051863;28;20238;-54
2022/12/13 09:41:20;;;;;;;860.83;782.23;;;-3.70;99.90;;;;;;5051359;28;20229;-51
2022/12/13 09:44:01;;;;;;;980.97;880.07;;;-3.60;99.90;;;;;;5049430;28;20215;-53
2022/12/13 09:46:32;;;;;;;767.73;689.40;;;-3.50;99.90;;;;;;5051354;28;20208;-53
2022/12/13 09:49:15;;;;;;;1151.60;853.73;;;-3.40;99.90;;;;;;5050980;28;20577;-52
2022/12/13 09:51:54;;;;;;;1067.03;918.57;;;-3.30;99.90;;;;;;5051000;28;20215;-53
2022/12/13 09:54:39;;;;;;;1436.60;993.63;;;-3.30;99.90;;;;;;5032716;28;20201;-53
2022/12/13 09:57:18;;;;;;;1008.30;900.87;;;-3.30;99.90;;;;;;5050523;28;20210;-53
2022/12/13 10:00:04;;;;;;;896.00;803.57;;;-3.30;99.90;;;;;;5044045;28;20227;-51
2022/12/13 10:02:41;;;;;;;1264.77;989.60;;;-3.30;99.90;;;;;;5050680;28;20305;-52
2022/12/13 10:05:17;;;;;;;1171.63;969.13;;;-3.40;99.90;;;;;;5050662;28;20204;-53
2022/12/13 10:07:54;;;;;;;676.40;603.63;;;-3.30;99.90;;;;;;5050223;28;20261;-51
2022/12/13 10:10:23;;;;;;;1101.53;982.23;;;-3.30;99.90;;;;;;5050306;28;20249;-53
2022/12/13 10:12:58;;;;;;;733.57;600.07;;;-3.20;99.90;;;;;;5050077;28;20240;-53
2022/12/13 10:15:29;;;;;;;1169.27;918.73;;;-3.20;99.90;;;;;;5050393;28;20705;-52
2022/12/13 10:17:59;;;;;;;907.03;813.43;;;-3.20;99.90;;;;;;5050080;28;20244;-53
2022/12/13 10:20:29;;;;;;;516.97;442.07;;;-3.10;99.90;;;;;;5044554;28;20773;-53
2022/12/13 10:22:57;;;;;;;595.30;530.03;;;-3.10;99.90;;;;;;5046169;28;20248;-52
2022/12/13 10:25:50;;;;;;;860.73;767.03;;;-3.00;99.90;;;;;;5049504;28;20210;-53
2022/12/13 10:28:26;;;;;;;682.10;616.17;;;-2.90;99.90;;;;;;5049972;28;20248;-53
2022/12/13 10:30:57;;;;;;;891.57;783.00;;;-2.80;99.90;;;;;;5049968;28;20669;-53
2022/12/13 10:33:29;;;;;;;757.30;688.40;;;-2.70;99.90;;;;;;5044211;28;20241;-52
2022/12/13 10:36:13;;;;;;;691.63;631.03;;;-2.80;99.90;;;;;;5050029;28;20293;-53
2022/12/13 10:38:44;;;;;;;790.00;713.47;;;-2.80;99.90;;;;;;5049893;28;20215;-52
2022/12/13 10:41:34;;;;;;;620.67;552.87;;;-3.00;99.90;;;;;;5049220;28;20702;-52
2022/12/13 10:44:18;;;;;;;638.00;584.27;;;-2.80;99.90;;;;;;5049531;28;20310;-52
2022/12/13 10:47:01;;;;;;;725.07;652.13;;;-2.70;99.90;;;;;;5048184;28;20288;-53
2022/12/13 10:49:37;;;;;;;667.17;604.10;;;-2.60;99.90;;;;;;5044649;28;20280;-52
2022/12/13 10:52:07;;;;;;;993.83;897.10;;;-2.50;99.90;;;;;;5043196;28;20209;-52
2022/12/13 10:54:37;;;;;;;1007.13;884.60;;;-2.50;99.90;;;;;;5039657;28;20205;-53
2022/12/13 10:57:16;;;;;;;921.03;828.33;;;-2.50;99.90;;;;;;5049768;28;20893;-53
2022/12/13 10:59:47;;;;;;;557.50;509.40;;;-2.50;99.90;;;;;;5048725;28;20256;-52
2022/12/13 11:02:37;;;;;;;577.50;521.33;;;-2.50;99.90;;;;;;5048031;28;20290;-53
2022/12/13 11:05:31;;;;;;;513.97;463.03;;;-2.50;99.90;;;;;;5049925;28;20201;-52
2022/12/13 11:08:13;;;;;;;647.03;589.97;;;-2.50;99.90;;;;;;5034037;28;20247;-51
2022/12/13 11:10:41;;;;;;;549.57;505.27;;;-2.40;99.90;;;;;;5049217;28;20213;-52
2022/12/13 11:13:24;;;;;;;902.43;818.93;;;-2.40;99.90;;;;;;5048869;28;20239;-53
2022/12/13 11:15:56;;;;;;;681.00;567.90;;;-2.30;99.90;;;;;;5045479;28;20209;-52
2022/12/13 11:18:27;;;;;;;583.80;529.03;;;-2.60;99.90;;;;;;5049296;28;20745;-52
2022/12/13 11:20:58;;;;;;;1029.73;510.63;;;-2.70;99.90;;;;;;5048890;28;20231;-52
2022/12/13 11:23:30;;;;;;;475.50;430.30;;;-2.80;99.90;;;;;;5048465;28;20240;-53
2022/12/13 11:26:01;;;;;;;891.80;798.00;;;-2.70;99.90;;;;;;5049215;28;20280;-52
2022/12/13 11:28:53;;;;;;;713.37;642.00;;;-2.60;99.90;;;;;;5048388;28;20245;-52
2022/12/13 11:31:30;;;;;;;1294.53;997.53;;;-2.50;99.90;;;;;;5047853;28;20289;-52
2022/12/13 11:34:06;;;;;;;719.70;654.53;;;-2.50;99.90;;;;;;5048643;28;20209;-52
2022/12/13 11:36:41;;;;;;;800.70;723.80;;;-2.60;99.90;;;;;;5039223;28;20632;-52
2022/12/13 11:39:19;;;;;;;736.47;670.93;;;-2.60;99.90;;;;;;5048384;28;20605;-52
2022/12/13 11:41:54;;;;;;;801.80;550.07;;;-2.60;99.90;;;;;;5048365;28;20648;-52
2022/12/13 11:44:36;;;;;;;990.63;853.80;;;-2.50;99.90;;;;;;5048952;28;20197;-52
2022/12/13 11:47:14;;;;;;;873.90;785.97;;;-2.60;99.90;;;;;;5036986;28;20205;-52
2022/12/13 11:49:46;;;;;;;830.73;742.27;;;-2.60;99.90;;;;;;5048601;28;20236;-52
2022/12/13 11:52:20;;;;;;;924.47;827.80;;;-2.60;99.90;;;;;;5048403;28;20240;-52
2022/12/13 11:54:54;;;;;;;1013.63;812.40;;;-2.60;99.90;;;;;;5048617;28;20244;-53
2022/12/13 11:57:32;;;;;;;572.97;522.43;;;-2.50;99.90;;;;;;5048420;28;20240;-52
2022/12/13 12:00:09;;;;;;;746.00;670.40;;;-2.60;99.90;;;;;;5047976;28;20300;-53
2022/12/13 12:02:44;;;;;;;843.83;752.17;;;-2.60;99.90;;;;;;5048304;28;20216;-52
2022/12/13 12:05:27;;;;;;;1054.93;938.53;;;-2.60;99.90;;;;;;5048765;28;20232;-52
2022/12/13 12:07:59;;;;;;;945.87;627.93;;;-2.60;99.90;;;;;;5048360;28;20221;-52
2022/12/13 12:10:49;;;;;;;642.07;507.83;;;-2.70;99.90;;;;;;5048652;28;20231;-51
2022/12/13 12:13:21;;;;;;;916.20;739.23;;;-2.70;99.90;;;;;;5047914;28;20287;-52
2022/12/13 12:15:57;;;;;;;798.27;498.93;;;-2.70;99.90;;;;;;5035145;28;20288;-53
2022/12/13 12:18:25;;;;;;;907.87;808.10;;;-2.70;99.90;;;;;;5048349;28;20217;-52
2022/12/13 12:21:06;;;;;;;947.33;845.20;;;-2.60;99.90;;;;;;5034602;28;20778;-52
2022/12/13 12:23:51;;;;;;;806.73;717.43;;;-2.60;99.90;;;;;;5047292;28;20251;-51
2022/12/13 12:26:26;;;;;;;660.47;592.33;;;-2.50;99.90;;;;;;5048627;28;20777;-53
2022/12/13 12:29:13;;;;;;;1114.30;904.50;;;-2.50;99.90;;;;;;5048677;28;20207;-52
2022/12/13 12:31:52;;;;;;;820.20;735.20;;;-2.50;99.90;;;;;;5047911;28;20224;-52
2022/12/13 12:34:33;;;;;;;836.50;745.37;;;-2.50;99.90;;;;;;5048431;28;20235;-52